Relevés horaires Les Attelas (Suisse)


Relevés horaires à Les Attelas - Jeudi 30 Juill. 2026
Heure UTC1 Température [°C] Vent [km/h] Hum. [%] Pres.4 [hPa] Visi. [Km] Nébu. [octa] Préc.5 [mm] Cond.
2m. Res. Ros. Dir.2 Vit. Moy. Raf.3
23:00 14.1 13 0.7 S 14.8 -- 22.2 40 700(-0.1/3h) -- -- -- --
22:00 14.8 14.8 0.3 SO 5.6 -- 13.0 37 700(-0.1/3h) -- -- -- --
21:00 14.8 14.5 0.5 S 9.3 -- 27.8 38 700(0.1/3h) -- -- -- --
20:00 14.6 14.6 0.6 ONO 3.7 -- 14.8 38 700(0.1/3h) -- -- -- --
19:00 14.7 14.1 0.2 OSO 11.1 -- 27.8 37 700(-0.6/3h) -- -- -- --
18:00 15.6 14.5 -0.2 OSO 18.5 -- 42.6 34 700(-0.4/3h) -- -- -- --
17:00 13.7 12 4.8 S 20.4 -- 42.6 55 700(-0.5/3h) -- -- -- --
16:00 11.6 9.1 8.0 SSO 24.1 -- 35.2 79 700(0.0/3h) -- -- -- --
15:00 15.3 14.8 5.5 SSO 11.1 -- 29.6 52 700(-0.4/3h) -- -- -- --
14:00 18.7 18.7 1.7 OSO 11.1 -- 29.6 32 700(0.1/3h) -- -- -- --
13:00 18.5 18.5 -6.8 O 9.3 -- 22.2 17 700(0.3/3h) -- -- -- --
12:00 18.8 18.8 1.8 O 5.6 -- 33.3 32 700(0.6/3h) -- -- -- --
11:00 17.2 17.2 4.1 N 5.6 -- 14.8 42 700(0.4/3h) -- -- -- --
10:00 17.5 17.5 2.5 S 3.7 -- 9.3 37 700(0.3/3h) -- -- -- --
09:00 17.3 17.3 0.2 SE 5.6 -- 33.3 31 700(0.0/3h) -- -- -- --
08:00 13.9 12.9 -1.8 NE 13.0 -- 33.3 34 700(-0.2/3h) -- -- -- --
07:00 13.8 12.3 -2.0 ENE 18.5 -- 27.8 33 700(-0.1/3h) -- -- -- --
06:00 13.5 12.9 -7.2 NNE 9.3 -- 20.4 23 700(0.1/3h) -- -- -- --
05:00 12.9 12.9 -14.1 SE 3.7 -- 14.8 14 700(-0.1/3h) -- -- -- --
04:00 11.8 11.2 -1.0 SSO 7.4 -- 13.0 41 700(-0.4/3h) -- -- -- --
03:00 11.4 10.1 3.5 S 11.1 -- 13.0 58 700(-0.5/3h) -- -- -- --
02:00 11.3 11.1 3.5 SSO 5.6 -- 9.3 59 700(-0.6/3h) -- -- -- --
01:00 11.5 11.5 3.1 SSO 1.9 -- 7.4 56 700(-0.4/3h) -- -- -- --
00:00 11.7 11.7 3.8 ONO 3.7 -- 20.4 58 700(-0.3/3h) -- -- -- --

1 Coordinated Universal Time. Actuellement il est 13:00 locale et 11:00 UTC.

2 Le vent souffle depuis la direction indiquée vers la direction oposée.

3 Les rafales max. sont disponible 40 min après l'heure du relevé.

4 Pour les stations d'altitude (plus de 600m) le géopotentiel du niveau le plus proche de la pression obligatoire est indiqué.

5 Les stations disposant d'un diffuseur peuvent indiquer "trace". Cela signifie que des précipitations ont touchés le sol mais que la quantité est inférieure à 0.1 mm.

Copyright

Les données affichées sur cette page sont la propriété exclusive de Météo Suisse.

Récapitulatif de la journée
Température [°C] Vent [km/h] Ensoleillement4 [h] Precipitations totale5 [mm] Pression [Hpa]
Min1 Max.2 Moy.3 Max. Min Max.
11.2 18.8 0 42.6 13 h 0 min 0 700.0 700.0

1 Température minimale relevée entre 18:00 UTC la veille et 18:00 UTC le jour donné.

2 Température maximale relevée entre 06:00 UTC le jour donné et 06:00 UTC le lendemain.

3 Vent moyen de la journée basé sur les relevés horaires.

4 Ensoleillement en heures relevé entre 06:00 UTC la veille et 06:00 UTC le jour donné.

5 Précipitations totales tombées entre 06:00 UTC la jour donné et 06:00 UTC le lendemain.

Graphiques horaires